KALB/ALB METAR and TAF weather

Enter ICAO airport designator
Station Type Date Time Source
KALB METAR 2021/05/11 00:51 UTC NOAA

KALB 110051Z 28005KT 10SM BKN090 10/04 A2996 RMK AO2 SLP147 T01000039


Station Type Date Time Source
KALB Decoded METAR 2021/05/11 00:51 UTC NOAA

ALBANY INTERNATIONAL AIRPORT, NY, United States (KALB) 42-45N 73-48W
May 10, 2021 - 08:51 PM EDT / 2021.05.11 0051 UTC
Wind: from the W (280 degrees) at 6 MPH (5 KT):0
Visibility: 10 mile(s):0
Sky conditions: mostly cloudy
Temperature: 50.0 F (10.0 C)
Dew Point: 39.0 F (3.9 C)
Relative Humidity: 65%
Pressure (altimeter): 29.96 in. Hg (1014 hPa)
ob: KALB 110051Z 28005KT 10SM BKN090 10/04 A2996 RMK AO2 SLP147 T01000039
cycle: 1

Station Type Date Time Source
KALB TAF 2021/05/10 18:22 UTC NOAA

TAF KALB 101720Z 1018/1118 29009KT P6SM VCSH OVC040
FM110300 25005KT P6SM SCT250
FM111500 28012G20KT P6SM SCT070

Example: see airport list